createdAt,value
2018-01-15T00:00:56.193Z,23.53
2018-01-15T00:03:24.675Z,22.50
2018-01-15T00:05:53.074Z,23.43
2018-01-15T00:08:21.449Z,22.73
2018-01-15T00:10:49.829Z,25.27
2018-01-15T00:13:18.493Z,23.90
2018-01-15T00:15:48.098Z,23.73
2018-01-15T00:18:16.529Z,24.30
2018-01-15T00:20:45.092Z,21.87
2018-01-15T00:23:13.525Z,28.67
2018-01-15T00:25:41.904Z,25.33
2018-01-15T00:28:10.294Z,28.90
2018-01-15T00:30:39.712Z,30.70
2018-01-15T00:33:08.088Z,27.23
2018-01-15T00:35:36.476Z,26.03
2018-01-15T00:38:05.256Z,31.00
2018-01-15T00:40:33.900Z,28.70
2018-01-15T00:43:02.514Z,28.37
2018-01-15T00:45:30.882Z,26.80
2018-01-15T00:47:59.261Z,27.60
2018-01-15T00:50:28.494Z,28.70
2018-01-15T00:52:57.153Z,24.53
2018-01-15T00:55:26.565Z,29.23
2018-01-15T00:57:55.145Z,31.83
2018-01-15T01:00:23.525Z,27.57
2018-01-15T01:02:52.729Z,27.43
2018-01-15T01:05:20.795Z,27.57
2018-01-15T01:07:49.169Z,28.87
2018-01-15T01:10:17.553Z,28.87
2018-01-15T01:12:45.979Z,26.67
2018-01-15T01:15:15.125Z,29.13
2018-01-15T01:17:43.550Z,37.30
2018-01-15T01:20:12.701Z,34.90
2018-01-15T01:22:41.120Z,30.27
2018-01-15T01:25:09.764Z,34.40
2018-01-15T01:27:38.176Z,31.40
2018-01-15T01:30:06.742Z,33.40
2018-01-15T01:32:35.112Z,39.67
2018-01-15T01:35:03.450Z,34.30
2018-01-15T01:37:31.818Z,31.97
2018-01-15T01:40:01.454Z,30.34
2018-01-15T01:42:29.852Z,32.53
2018-01-15T01:44:58.627Z,31.27
2018-01-15T01:47:27.936Z,26.15
2018-01-15T01:49:56.594Z,30.42
2018-01-15T01:52:24.998Z,32.57
2018-01-15T01:54:53.755Z,29.23
2018-01-15T01:57:22.146Z,29.67
2018-01-15T01:59:51.565Z,32.07
2018-01-15T02:02:20.322Z,35.07
2018-01-15T02:04:48.977Z,35.87
2018-01-15T02:07:17.625Z,30.35
2018-01-15T02:09:45.997Z,31.50
2018-01-15T02:12:14.457Z,35.80
2018-01-15T02:14:42.829Z,33.47
2018-01-15T02:17:12.245Z,33.83
2018-01-15T02:19:40.835Z,33.80
2018-01-15T02:22:09.225Z,35.90
2018-01-15T02:24:38.518Z,33.53
2018-01-15T02:27:06.586Z,34.57
2018-01-15T02:29:34.968Z,36.30
2018-01-15T02:32:03.349Z,27.70
2018-01-15T02:34:31.736Z,33.80
2018-01-15T02:37:01.357Z,35.10
2018-01-15T02:39:29.402Z,32.47
2018-01-15T02:41:58.080Z,40.47
2018-01-15T02:44:26.454Z,34.03
2018-01-15T02:46:54.838Z,37.77
2018-01-15T02:49:23.337Z,41.10
2018-01-15T02:51:53.124Z,38.97
2018-01-15T02:54:22.738Z,42.07
2018-01-15T02:56:51.157Z,44.90
2018-01-15T02:59:19.813Z,49.58
2018-01-15T03:01:48.389Z,42.90
2018-01-15T03:04:17.081Z,45.50
2018-01-15T03:06:46.346Z,39.40
2018-01-15T03:09:15.841Z,50.40
2018-01-15T03:11:45.201Z,46.33
2018-01-15T03:14:13.845Z,38.40
2018-01-15T03:16:42.569Z,44.73
2018-01-15T03:19:11.061Z,43.30
2018-01-15T03:21:39.705Z,42.78
2018-01-15T03:24:08.357Z,43.15
2018-01-15T03:26:37.793Z,36.40
2018-01-15T03:29:06.381Z,39.40
2018-01-15T03:31:34.765Z,45.70
2018-01-15T03:34:04.021Z,43.80
2018-01-15T03:36:33.445Z,38.30
2018-01-15T03:39:01.888Z,39.53
2018-01-15T03:41:30.424Z,36.37
2018-01-15T03:43:59.074Z,36.70
2018-01-15T03:46:27.564Z,36.03
2018-01-15T03:48:56.034Z,33.47
2018-01-15T03:51:24.610Z,39.40
2018-01-15T03:53:55.948Z,39.30
2018-01-15T03:56:24.334Z,37.77
2018-01-15T03:58:53.661Z,38.47
2018-01-15T04:01:22.224Z,43.67
2018-01-15T04:03:50.604Z,42.23
2018-01-15T04:06:19.496Z,48.33
2018-01-15T04:08:47.873Z,42.60
2018-01-15T04:11:18.453Z,48.27
2018-01-15T04:13:47.820Z,46.15
2018-01-15T04:16:16.500Z,49.00
2018-01-15T04:18:44.898Z,47.07
2018-01-15T04:21:13.560Z,48.35
2018-01-15T04:23:44.541Z,50.38
2018-01-15T04:26:12.928Z,51.80
2018-01-15T04:28:42.390Z,47.57
2018-01-15T04:31:10.956Z,45.03
2018-01-15T04:33:40.173Z,54.27
2018-01-15T04:36:08.366Z,62.67
2018-01-15T04:38:36.744Z,50.70
2018-01-15T04:41:05.213Z,57.13
2018-01-15T04:43:34.479Z,54.13
2018-01-15T04:46:03.084Z,57.40
2018-01-15T04:48:31.505Z,52.10
2018-01-15T04:51:00.644Z,63.70
2018-01-15T04:53:29.273Z,56.97
2018-01-15T04:55:57.933Z,50.80
2018-01-15T04:58:26.577Z,55.75
2018-01-15T05:00:55.381Z,52.90
2018-01-15T05:03:24.392Z,59.63
2018-01-15T05:05:53.284Z,69.68
2018-01-15T05:08:21.748Z,57.47
2018-01-15T05:10:50.255Z,55.40
2018-01-15T05:13:19.814Z,50.90
2018-01-15T05:15:49.024Z,53.07
2018-01-15T05:18:18.184Z,62.50
2018-01-15T05:20:47.666Z,61.23
2018-01-15T05:23:16.321Z,60.80
2018-01-15T05:25:44.984Z,65.57
2018-01-15T05:28:13.363Z,61.40
2018-01-15T05:30:42.048Z,54.73
2018-01-15T05:33:10.508Z,57.93
2018-01-15T05:35:39.168Z,55.30
2018-01-15T05:38:07.540Z,59.10
2018-01-15T05:40:36.212Z,59.15
2018-01-15T05:43:04.618Z,59.40
2018-01-15T05:45:33.317Z,57.05
2018-01-15T05:48:01.706Z,65.40
2018-01-15T05:50:30.409Z,51.50
2018-01-15T05:52:59.117Z,63.33
2018-01-15T05:55:27.585Z,64.50
2018-01-15T05:57:56.237Z,75.82
2018-01-15T06:00:24.681Z,54.00
2018-01-15T06:02:53.081Z,59.80
2018-01-15T06:05:22.289Z,59.30
2018-01-15T06:07:50.817Z,66.00
2018-01-15T06:10:19.293Z,57.60
2018-01-15T06:12:47.676Z,55.00
2018-01-15T06:15:16.060Z,58.67
2018-01-15T06:17:44.717Z,52.45
2018-01-15T06:20:13.480Z,59.80
2018-01-15T06:22:42.029Z,49.47
2018-01-15T06:25:10.717Z,54.27
2018-01-15T06:27:40.397Z,58.80
2018-01-15T06:30:09.057Z,55.73
2018-01-15T06:32:37.732Z,50.30
2018-01-15T06:35:06.112Z,52.03
2018-01-15T06:37:34.492Z,59.07
2018-01-15T06:40:03.916Z,47.53
2018-01-15T06:42:33.511Z,48.85
2018-01-15T06:45:02.029Z,48.00
2018-01-15T06:47:30.689Z,51.03
2018-01-15T06:49:59.109Z,44.30
2018-01-15T06:52:28.584Z,50.37
2018-01-15T06:54:56.938Z,53.07
2018-01-15T06:57:25.365Z,40.20
2018-01-15T06:59:54.016Z,48.58
2018-01-15T07:02:22.410Z,43.08
2018-01-15T07:04:51.590Z,54.53
2018-01-15T07:07:20.248Z,43.05
2018-01-15T07:09:48.740Z,46.50
2018-01-15T07:12:17.121Z,40.47
2018-01-15T07:14:45.786Z,42.90
2018-01-15T07:17:15.255Z,41.03
2018-01-15T07:19:43.996Z,40.10
2018-01-15T07:22:12.371Z,40.93
2018-01-15T07:24:40.762Z,42.27
2018-01-15T07:27:09.422Z,39.77
2018-01-15T07:29:37.809Z,40.17
2018-01-15T07:32:06.830Z,43.58
2018-01-15T07:34:36.469Z,39.53
2018-01-15T07:37:05.613Z,41.80
2018-01-15T07:39:34.285Z,36.10
2018-01-15T07:42:03.169Z,40.92
2018-01-15T07:44:31.921Z,38.50
2018-01-15T07:47:01.081Z,39.30
2018-01-15T07:49:29.453Z,39.00
2018-01-15T07:51:57.854Z,39.43
2018-01-15T07:54:26.301Z,43.30
2018-01-15T07:56:54.681Z,36.20
2018-01-15T07:59:23.405Z,42.03
2018-01-15T08:01:53.364Z,35.42
2018-01-15T08:04:22.053Z,35.73
2018-01-15T08:06:50.763Z,35.43
2018-01-15T08:09:19.191Z,36.50
2018-01-15T08:11:47.998Z,34.80
2018-01-15T08:14:16.570Z,40.37
2018-01-15T08:16:44.984Z,37.23
2018-01-15T08:19:13.368Z,35.80
2018-01-15T08:21:41.956Z,32.37
2018-01-15T08:24:10.616Z,38.33
2018-01-15T08:26:39.840Z,43.70
2018-01-15T08:29:08.436Z,46.40
2018-01-15T08:31:37.732Z,37.60
2018-01-15T08:34:06.592Z,37.07
2018-01-15T08:36:34.970Z,42.43
2018-01-15T08:39:03.050Z,40.23
2018-01-15T08:41:32.066Z,53.10
2018-01-15T08:44:00.635Z,53.70
2018-01-15T08:46:29.307Z,52.28
2018-01-15T08:48:57.357Z,35.67
2018-01-15T08:51:26.790Z,36.17
2018-01-15T08:53:55.407Z,42.27
2018-01-15T08:56:23.801Z,38.00
2018-01-15T08:58:52.171Z,41.53
2018-01-15T09:01:21.373Z,41.27
2018-01-15T09:03:49.884Z,42.03
2018-01-15T09:06:18.477Z,40.17
2018-01-15T09:08:47.174Z,46.55
2018-01-15T09:11:15.627Z,39.70
2018-01-15T09:13:45.043Z,36.70
2018-01-15T09:16:13.765Z,34.67
2018-01-15T09:18:43.265Z,38.37
2018-01-15T09:21:11.628Z,41.23
2018-01-15T09:23:40.310Z,42.43
2018-01-15T09:26:08.810Z,37.67
2018-01-15T09:28:37.476Z,37.00
2018-01-15T09:31:06.709Z,35.03
2018-01-15T09:33:36.350Z,38.80
2018-01-15T09:36:08.199Z,36.37
2018-01-15T09:38:36.997Z,37.15
2018-01-15T09:41:05.888Z,31.70
2018-01-15T09:43:34.988Z,47.40
2018-01-15T09:46:03.372Z,93.27
2018-01-15T09:48:33.975Z,35.50
2018-01-15T09:51:02.441Z,38.20
2018-01-15T09:53:31.098Z,37.92
2018-01-15T09:55:59.750Z,30.65
2018-01-15T09:58:28.116Z,34.57
2018-01-15T10:00:56.519Z,31.13
2018-01-15T10:03:25.806Z,26.13
2018-01-15T10:05:54.174Z,29.63
2018-01-15T10:08:23.276Z,30.08
2018-01-15T10:10:51.970Z,31.15
2018-01-15T10:13:20.729Z,31.00
2018-01-15T10:15:49.409Z,25.53
2018-01-15T10:18:17.781Z,27.53
2018-01-15T10:20:46.417Z,25.70
2018-01-15T10:23:15.203Z,31.27
2018-01-15T10:25:44.809Z,31.10
2018-01-15T10:28:13.481Z,29.00
2018-01-15T10:30:42.141Z,31.20
2018-01-15T10:33:10.785Z,31.17
2018-01-15T10:35:39.439Z,29.80
2018-01-15T10:38:07.820Z,31.50
2018-01-15T10:40:36.200Z,25.90
2018-01-15T10:43:04.752Z,28.97
2018-01-15T10:45:34.068Z,27.10
2018-01-15T10:48:02.710Z,26.30
2018-01-15T10:50:31.525Z,23.95
2018-01-15T10:53:00.956Z,27.40
2018-01-15T10:55:29.708Z,21.70
2018-01-15T10:57:58.088Z,27.53
2018-01-15T11:00:32.172Z,24.10
2018-01-15T11:03:02.325Z,22.48
2018-01-15T11:05:30.897Z,21.00
2018-01-15T11:07:59.280Z,22.20
2018-01-15T11:10:27.910Z,22.27
2018-01-15T11:12:56.452Z,17.80
2018-01-15T11:15:25.126Z,20.83
2018-01-15T11:17:53.502Z,26.07
2018-01-15T11:20:21.878Z,20.73
2018-01-15T11:22:51.363Z,28.07
2018-01-15T11:25:20.686Z,22.97
2018-01-15T11:27:49.468Z,19.07
2018-01-15T11:30:18.116Z,24.03
2018-01-15T11:32:46.758Z,22.30
2018-01-15T11:35:15.127Z,25.77
2018-01-15T11:37:43.527Z,17.73
2018-01-15T11:40:12.178Z,23.05
2018-01-15T11:42:40.645Z,21.10
2018-01-15T11:45:09.089Z,17.90
2018-01-15T11:47:37.629Z,16.80
2018-01-15T11:50:07.037Z,18.53
2018-01-15T11:52:35.701Z,21.90
2018-01-15T11:55:03.745Z,17.37
2018-01-15T11:57:32.979Z,22.30
2018-01-15T12:00:01.373Z,18.93
2018-01-15T12:02:29.753Z,17.60
2018-01-15T12:04:58.375Z,20.57
2018-01-15T12:07:27.033Z,20.88
2018-01-15T12:09:55.410Z,20.30
2018-01-15T12:12:24.002Z,18.60
2018-01-15T12:14:52.656Z,19.97
2018-01-15T12:17:21.032Z,20.83
2018-01-15T12:19:49.402Z,23.50
2018-01-15T12:22:17.820Z,23.57
2018-01-15T12:24:46.472Z,21.83
2018-01-15T12:27:15.890Z,22.52
2018-01-15T12:29:45.085Z,25.30
2018-01-15T12:32:13.458Z,20.30
2018-01-15T12:34:42.526Z,22.85
2018-01-15T12:37:11.165Z,20.73
2018-01-15T12:39:40.966Z,26.20
2018-01-15T12:42:09.074Z,18.87
2018-01-15T12:44:37.742Z,22.23
2018-01-15T12:47:06.394Z,19.40
2018-01-15T12:49:35.173Z,18.55
2018-01-15T12:52:04.769Z,19.37
2018-01-15T12:54:34.074Z,19.70
2018-01-15T12:57:02.541Z,21.90
2018-01-15T12:59:31.042Z,19.83
2018-01-15T13:01:59.849Z,20.42
2018-01-15T13:04:28.505Z,23.80
2018-01-15T13:06:56.289Z,25.03
2018-01-15T13:09:24.671Z,16.57
2018-01-15T13:11:54.065Z,26.23
2018-01-15T13:14:22.721Z,18.95
2018-01-15T13:16:51.208Z,21.27
2018-01-15T13:19:19.591Z,26.83
2018-01-15T13:21:47.973Z,25.37
2018-01-15T13:24:16.740Z,22.92
2018-01-15T13:26:45.277Z,35.83
2018-01-15T13:29:14.135Z,24.25
2018-01-15T13:31:42.456Z,28.53
2018-01-15T13:34:11.612Z,24.00
2018-01-15T13:36:40.270Z,24.67
2018-01-15T13:39:09.685Z,23.77
2018-01-15T13:41:38.084Z,22.50
2018-01-15T13:44:06.472Z,19.73
2018-01-15T13:46:34.932Z,26.23
2018-01-15T13:49:03.300Z,22.10
2018-01-15T13:51:32.206Z,21.93
2018-01-15T13:54:00.584Z,20.65
2018-01-15T13:56:28.966Z,19.77
2018-01-15T13:58:57.349Z,22.77
2018-01-15T14:01:25.745Z,23.50
2018-01-15T14:03:54.430Z,31.77
2018-01-15T14:06:22.998Z,27.03
2018-01-15T14:08:51.641Z,21.48
2018-01-15T14:11:21.061Z,21.10
2018-01-15T14:13:49.453Z,22.30
2018-01-15T14:16:17.825Z,23.40
2018-01-15T14:18:46.277Z,28.83
2018-01-15T14:21:15.612Z,25.00
2018-01-15T14:23:44.293Z,26.87
2018-01-15T14:26:12.664Z,22.00
2018-01-15T14:28:41.320Z,25.92
2018-01-15T14:31:10.721Z,22.90
2018-01-15T14:33:39.103Z,22.47
2018-01-15T14:36:07.808Z,21.53
2018-01-15T14:38:36.452Z,23.45
2018-01-15T14:41:05.892Z,21.30
2018-01-15T14:43:34.555Z,26.02
2018-01-15T14:46:03.972Z,27.98
2018-01-15T14:48:32.344Z,26.73
2018-01-15T14:51:01.794Z,26.92
2018-01-15T14:53:30.444Z,24.80
2018-01-15T14:55:59.090Z,19.42
2018-01-15T14:58:28.642Z,24.73
2018-01-15T15:00:57.008Z,22.50
2018-01-15T15:03:25.452Z,27.90
2018-01-15T15:05:53.867Z,26.50
2018-01-15T15:08:22.507Z,21.03
2018-01-15T15:10:51.150Z,20.00
2018-01-15T15:13:20.743Z,24.75
2018-01-15T15:15:50.652Z,22.30
2018-01-15T15:18:18.805Z,22.83
2018-01-15T15:20:47.202Z,26.70
2018-01-15T15:23:15.793Z,32.70
2018-01-15T15:25:44.161Z,29.50
2018-01-15T15:28:12.825Z,29.30
2018-01-15T15:30:41.193Z,26.67
2018-01-15T15:33:09.901Z,31.13
2018-01-15T15:35:38.573Z,26.07
2018-01-15T15:38:06.953Z,24.90
2018-01-15T15:40:35.718Z,30.57
2018-01-15T15:43:04.403Z,22.70
2018-01-15T15:45:32.828Z,21.40
2018-01-15T15:48:01.656Z,24.95
2018-01-15T15:50:30.066Z,22.43
2018-01-15T15:52:58.436Z,28.17
2018-01-15T15:55:27.081Z,26.65
2018-01-15T15:57:55.743Z,21.73
2018-01-15T16:00:23.775Z,32.40
2018-01-15T16:02:52.148Z,28.77
2018-01-15T16:05:20.602Z,28.33
2018-01-15T16:07:49.294Z,23.80
2018-01-15T16:10:18.126Z,29.07
2018-01-15T16:12:47.540Z,21.83
2018-01-15T16:15:16.231Z,24.52
2018-01-15T16:17:44.899Z,21.70
2018-01-15T16:20:13.806Z,24.75
2018-01-15T16:22:53.601Z,24.10
2018-01-15T16:25:22.293Z,24.77
2018-01-15T16:27:50.348Z,19.30
2018-01-15T16:30:19.501Z,24.57
2018-01-15T16:32:48.156Z,19.12
2018-01-15T16:35:16.528Z,20.57
2018-01-15T16:37:44.972Z,25.30
2018-01-15T16:40:13.665Z,22.97
2018-01-15T16:42:43.058Z,20.25
2018-01-15T16:45:11.704Z,23.07
2018-01-15T16:47:40.146Z,27.97
2018-01-15T16:50:14.965Z,22.83
2018-01-15T16:52:44.133Z,23.23
2018-01-15T16:55:12.505Z,22.53
2018-01-15T16:57:40.896Z,18.73
2018-01-15T17:00:09.569Z,17.23
2018-01-15T17:02:38.121Z,24.87
2018-01-15T17:05:06.699Z,18.50
2018-01-15T17:07:35.439Z,24.30
2018-01-15T17:10:03.755Z,21.23
2018-01-15T17:12:32.126Z,18.63
2018-01-15T17:15:00.539Z,22.10
2018-01-15T17:17:28.918Z,23.27
2018-01-15T17:19:57.571Z,19.37
2018-01-15T17:22:26.162Z,20.53
2018-01-15T17:24:54.841Z,23.83
2018-01-15T17:27:23.486Z,23.97
2018-01-15T17:29:52.053Z,26.10
2018-01-15T17:32:20.425Z,22.63
2018-01-15T17:34:48.929Z,24.00
2018-01-15T17:37:17.313Z,22.03
2018-01-15T17:39:45.945Z,19.90
2018-01-15T17:42:14.309Z,21.60
2018-01-15T17:44:42.693Z,18.97
2018-01-15T17:47:11.069Z,27.87
2018-01-15T17:49:40.065Z,22.67
2018-01-15T17:52:08.692Z,24.80
2018-01-15T17:54:37.340Z,18.25
2018-01-15T17:57:10.733Z,22.33
2018-01-15T17:59:40.847Z,21.03
2018-01-15T18:02:10.505Z,18.13
2018-01-15T18:04:39.227Z,20.05
2018-01-15T18:07:07.613Z,19.07
2018-01-15T18:09:36.085Z,18.77
2018-01-15T18:12:04.713Z,22.37
2018-01-15T18:14:33.101Z,22.43
2018-01-15T18:17:01.539Z,23.33
2018-01-15T18:19:29.925Z,20.90
2018-01-15T18:21:58.604Z,21.65
2018-01-15T18:24:26.972Z,21.77
2018-01-15T18:26:57.012Z,18.27
2018-01-15T18:29:25.416Z,21.23
2018-01-15T18:31:54.064Z,17.45
2018-01-15T18:34:22.716Z,19.37
2018-01-15T18:36:51.099Z,18.60
2018-01-15T18:39:19.814Z,20.17
2018-01-15T18:41:49.211Z,18.00
2018-01-15T18:44:17.770Z,19.10
2018-01-15T18:46:46.140Z,18.53
2018-01-15T18:49:14.506Z,21.50
2018-01-15T18:51:43.654Z,15.23
2018-01-15T18:54:11.693Z,18.20
2018-01-15T18:56:41.109Z,13.05
2018-01-15T18:59:09.577Z,15.50
2018-01-15T19:01:38.517Z,16.05
2018-01-15T19:04:07.213Z,17.20
2018-01-15T19:06:35.793Z,21.43
2018-01-15T19:09:04.272Z,16.27
2018-01-15T19:11:33.125Z,18.08
2018-01-15T19:14:01.785Z,18.20
2018-01-15T19:16:30.196Z,14.33
2018-01-15T19:18:58.603Z,16.17
2018-01-15T19:21:26.997Z,18.00
2018-01-15T19:23:56.140Z,20.53
2018-01-15T19:26:24.324Z,17.27
2018-01-15T19:28:52.516Z,18.10
2018-01-15T19:31:20.775Z,19.27
2018-01-15T19:33:49.127Z,14.20
2018-01-15T19:36:19.272Z,21.97
2018-01-15T19:38:49.526Z,34.25
2018-01-15T19:41:18.910Z,22.30
2018-01-15T19:44:02.412Z,36.33
2018-01-15T19:46:36.139Z,39.53
2018-01-15T19:49:09.878Z,41.60
2018-01-15T19:51:44.498Z,26.97
2018-01-15T19:54:19.294Z,32.40
2018-01-15T19:56:53.515Z,24.98
2018-01-15T19:59:27.729Z,25.35
2018-01-15T20:02:01.574Z,21.37
2018-01-15T20:04:36.360Z,22.30
2018-01-15T20:07:10.551Z,20.27
2018-01-15T20:09:44.610Z,18.70
2018-01-15T20:12:13.040Z,24.00
2018-01-15T20:14:41.452Z,18.57
2018-01-15T20:17:10.106Z,18.23
2018-01-15T20:19:39.508Z,28.23
2018-01-15T20:22:07.841Z,21.70
2018-01-15T20:24:37.190Z,21.87
2018-01-15T20:27:05.577Z,21.10
2018-01-15T20:29:34.141Z,23.43
2018-01-15T20:32:02.823Z,25.63
2018-01-15T20:34:31.469Z,26.27
2018-01-15T20:37:00.110Z,26.80
2018-01-15T20:39:28.773Z,25.35
2018-01-15T20:41:57.361Z,28.27
2018-01-15T20:44:26.002Z,25.30
2018-01-15T20:46:54.513Z,26.20
2018-01-15T20:49:23.033Z,31.57
2018-01-15T20:51:51.616Z,31.70
2018-01-15T20:54:20.273Z,29.55
2018-01-15T20:56:49.004Z,29.90
2018-01-15T20:59:17.670Z,29.50
2018-01-15T21:01:47.183Z,27.27
2018-01-15T21:04:15.840Z,31.90
2018-01-15T21:06:44.597Z,31.60
2018-01-15T21:09:13.294Z,33.23
2018-01-15T21:11:41.692Z,25.90
2018-01-15T21:14:10.080Z,32.67
2018-01-15T21:16:38.461Z,30.70
2018-01-15T21:19:06.840Z,33.63
2018-01-15T21:21:35.219Z,31.03
2018-01-15T21:24:03.674Z,31.10
2018-01-15T21:26:32.255Z,30.30
2018-01-15T21:29:00.764Z,29.90
2018-01-15T21:31:29.419Z,32.95
2018-01-15T21:33:57.827Z,31.27
2018-01-15T21:36:26.485Z,34.55
2018-01-15T21:38:55.351Z,37.00
2018-01-15T21:41:23.753Z,26.07
2018-01-15T21:43:52.821Z,34.00
2018-01-15T21:46:21.241Z,27.97
2018-01-15T21:48:49.617Z,33.90
2018-01-15T21:51:17.997Z,27.70
2018-01-15T21:53:46.384Z,28.27
2018-01-15T21:56:14.762Z,30.67
2018-01-15T21:58:43.966Z,28.67
2018-01-15T22:01:13.284Z,32.53
2018-01-15T22:03:42.424Z,32.00
2018-01-15T22:06:10.792Z,28.77
2018-01-15T22:08:39.180Z,29.30
2018-01-15T22:11:07.548Z,34.50
2018-01-15T22:13:36.777Z,27.40
2018-01-15T22:16:05.216Z,32.73
2018-01-15T22:18:33.590Z,36.13
2018-01-15T22:21:02.814Z,26.10
2018-01-15T22:23:31.201Z,19.00
2018-01-15T22:26:00.408Z,25.87
2018-01-15T22:28:30.994Z,28.27
2018-01-15T22:30:59.474Z,23.40
2018-01-15T22:33:27.850Z,22.80
2018-01-15T22:35:56.122Z,23.80
2018-01-15T22:38:24.513Z,30.53
2018-01-15T22:40:52.881Z,25.40
2018-01-15T22:43:21.257Z,21.83
2018-01-15T22:45:50.373Z,21.73
2018-01-15T22:48:18.753Z,23.57
2018-01-15T22:50:49.767Z,18.07
2018-01-15T22:53:18.157Z,18.50
2018-01-15T22:55:52.082Z,18.63
2018-01-15T22:58:21.430Z,21.97
2018-01-15T23:00:51.774Z,9.57
2018-01-15T23:03:23.216Z,13.77
2018-01-15T23:05:55.399Z,12.50
2018-01-15T23:08:23.780Z,9.87
2018-01-15T23:10:53.729Z,12.67
2018-01-15T23:13:25.665Z,11.13
2018-01-15T23:15:54.088Z,9.50
2018-01-15T23:18:22.460Z,6.83
2018-01-15T23:20:50.861Z,5.83
2018-01-15T23:23:21.585Z,7.17
2018-01-15T23:25:51.857Z,5.47
2018-01-15T23:28:20.227Z,4.37
2018-01-15T23:30:48.661Z,4.23
2018-01-15T23:33:17.895Z,4.00
2018-01-15T23:35:46.266Z,3.23
2018-01-15T23:38:14.649Z,2.40
2018-01-15T23:40:43.020Z,2.30
2018-01-15T23:43:11.408Z,2.80
2018-01-15T23:45:39.788Z,1.73
2018-01-15T23:48:08.162Z,1.87
2018-01-15T23:50:36.376Z,2.30
2018-01-15T23:53:04.765Z,1.70
2018-01-15T23:55:33.129Z,2.20
2018-01-15T23:58:01.494Z,2.30
